createdAt,value
2018-07-20T00:00:31.958Z,7.20
2018-07-20T00:03:01.773Z,7.00
2018-07-20T00:05:31.475Z,7.03
2018-07-20T00:08:01.250Z,7.00
2018-07-20T00:10:30.916Z,6.67
2018-07-20T00:13:00.639Z,6.90
2018-07-20T00:15:31.161Z,6.87
2018-07-20T00:18:00.874Z,7.20
2018-07-20T00:20:30.626Z,6.83
2018-07-20T00:23:00.300Z,6.40
2018-07-20T00:25:30.053Z,6.53
2018-07-20T00:27:59.739Z,6.57
2018-07-20T00:30:29.492Z,5.90
2018-07-20T00:32:59.220Z,5.30
2018-07-20T00:35:28.951Z,6.53
2018-07-20T00:37:58.711Z,6.70
2018-07-20T00:40:28.462Z,6.37
2018-07-20T00:42:58.167Z,5.87
2018-07-20T00:45:28.446Z,6.20
2018-07-20T00:47:58.234Z,5.57
2018-07-20T00:50:29.127Z,5.77
2018-07-20T00:52:58.946Z,5.13
2018-07-20T00:55:28.664Z,5.77
2018-07-20T00:57:58.440Z,6.00
2018-07-20T01:00:28.127Z,5.97
2018-07-20T01:02:57.817Z,5.67
2018-07-20T01:05:27.333Z,5.60
2018-07-20T01:07:56.863Z,6.07
2018-07-20T01:10:27.257Z,6.10
2018-07-20T01:12:56.989Z,5.43
2018-07-20T01:15:26.735Z,6.17
2018-07-20T01:17:56.478Z,6.67
2018-07-20T01:20:26.232Z,7.00
2018-07-20T01:22:55.957Z,5.40
2018-07-20T01:25:25.715Z,5.70
2018-07-20T01:27:55.421Z,6.17
2018-07-20T01:30:25.168Z,6.23
2018-07-20T01:32:54.855Z,6.70
2018-07-20T01:35:24.625Z,5.93
2018-07-20T01:37:54.319Z,6.10
2018-07-20T01:40:23.996Z,6.10
2018-07-20T01:42:53.791Z,6.70
2018-07-20T01:45:24.551Z,6.10
2018-07-20T01:47:54.443Z,6.33
2018-07-20T01:50:24.149Z,5.77
2018-07-20T01:52:53.823Z,5.70
2018-07-20T01:55:24.101Z,5.83
2018-07-20T01:57:53.902Z,6.80
2018-07-20T02:00:23.630Z,5.97
2018-07-20T02:02:53.324Z,6.30
2018-07-20T02:05:23.012Z,6.17
2018-07-20T02:07:52.738Z,5.77
2018-07-20T02:10:22.467Z,5.90
2018-07-20T02:12:52.179Z,5.67
2018-07-20T02:15:21.888Z,6.03
2018-07-20T02:17:51.811Z,6.60
2018-07-20T02:20:21.554Z,5.83
2018-07-20T02:22:51.228Z,6.40
2018-07-20T02:25:20.965Z,6.83
2018-07-20T02:27:50.665Z,6.13
2018-07-20T02:30:20.403Z,6.30
2018-07-20T02:32:50.111Z,6.70
2018-07-20T02:35:19.823Z,5.87
2018-07-20T02:37:49.520Z,6.63
2018-07-20T02:40:19.216Z,6.30
2018-07-20T02:42:48.899Z,6.90
2018-07-20T02:45:19.734Z,6.07
2018-07-20T02:47:49.542Z,6.43
2018-07-20T02:50:19.338Z,5.90
2018-07-20T02:52:49.284Z,6.33
2018-07-20T02:55:18.940Z,6.37
2018-07-20T02:57:48.667Z,6.27
2018-07-20T03:00:18.358Z,6.70
2018-07-20T03:02:49.067Z,6.93
2018-07-20T03:05:18.470Z,6.90
2018-07-20T03:07:47.929Z,6.30
2018-07-20T03:10:17.646Z,6.40
2018-07-20T03:12:47.351Z,6.60
2018-07-20T03:15:17.087Z,6.37
2018-07-20T03:17:46.789Z,6.20
2018-07-20T03:20:16.478Z,6.17
2018-07-20T03:22:46.205Z,6.03
2018-07-20T03:25:15.919Z,5.63
2018-07-20T03:27:45.623Z,6.37
2018-07-20T03:30:15.330Z,5.93
2018-07-20T03:32:45.079Z,6.20
2018-07-20T03:35:14.739Z,6.37
2018-07-20T03:37:44.461Z,6.43
2018-07-20T03:40:14.772Z,6.70
2018-07-20T03:42:44.486Z,5.73
2018-07-20T03:45:14.207Z,7.10
2018-07-20T03:47:43.602Z,5.63
2018-07-20T03:50:13.099Z,5.60
2018-07-20T03:52:42.790Z,5.80
2018-07-20T03:55:12.514Z,6.40
2018-07-20T03:57:42.250Z,6.10
2018-07-20T04:00:11.967Z,6.80
2018-07-20T04:02:41.668Z,6.10
2018-07-20T04:05:11.364Z,5.60
2018-07-20T04:07:41.054Z,6.50
2018-07-20T04:10:11.335Z,6.50
2018-07-20T04:12:40.962Z,5.97
2018-07-20T04:15:10.706Z,6.33
2018-07-20T04:17:43.286Z,6.07
2018-07-20T04:20:14.406Z,6.57
2018-07-20T04:22:44.622Z,6.60
2018-07-20T04:25:14.312Z,6.90
2018-07-20T04:27:44.031Z,5.33
2018-07-20T04:30:14.695Z,6.43
2018-07-20T04:32:44.377Z,6.03
2018-07-20T04:35:14.051Z,5.70
2018-07-20T04:37:43.722Z,6.23
2018-07-20T04:40:13.499Z,6.23
2018-07-20T04:42:43.190Z,6.13
2018-07-20T04:45:12.935Z,6.33
2018-07-20T04:47:42.609Z,6.10
2018-07-20T04:50:12.322Z,6.50
2018-07-20T04:52:41.991Z,6.40
2018-07-20T04:55:11.707Z,6.20
2018-07-20T04:57:41.365Z,6.87
2018-07-20T05:00:11.112Z,5.50
2018-07-20T05:02:40.767Z,5.63
2018-07-20T05:05:10.463Z,6.70
2018-07-20T05:07:40.852Z,6.20
2018-07-20T05:10:10.564Z,6.00
2018-07-20T05:12:40.238Z,5.83
2018-07-20T05:15:09.931Z,5.90
2018-07-20T05:17:39.623Z,6.50
2018-07-20T05:20:09.310Z,5.20
2018-07-20T05:22:39.030Z,6.17
2018-07-20T05:25:08.718Z,6.13
2018-07-20T05:27:38.530Z,5.90
2018-07-20T05:30:08.218Z,5.77
2018-07-20T05:32:38.321Z,5.70
2018-07-20T05:35:08.475Z,6.10
2018-07-20T05:37:38.263Z,5.97
2018-07-20T05:40:07.939Z,6.53
2018-07-20T05:42:37.618Z,6.20
2018-07-20T05:45:07.611Z,6.63
2018-07-20T05:47:37.270Z,6.20
2018-07-20T05:50:07.958Z,5.90
2018-07-20T05:52:37.710Z,6.00
2018-07-20T05:55:07.418Z,5.80
2018-07-20T05:57:37.151Z,6.27
2018-07-20T06:00:06.997Z,6.53
2018-07-20T06:02:36.738Z,6.07
2018-07-20T06:05:06.455Z,5.47
2018-07-20T06:07:36.122Z,5.67
2018-07-20T06:10:05.872Z,5.37
2018-07-20T06:12:35.559Z,5.97
2018-07-20T06:15:05.747Z,5.43
2018-07-20T06:17:35.467Z,5.60
2018-07-20T06:20:07.338Z,6.07
2018-07-20T06:22:37.435Z,5.67
2018-07-20T06:25:07.158Z,5.70
2018-07-20T06:27:36.855Z,6.50
2018-07-20T06:30:07.155Z,5.90
2018-07-20T06:32:37.071Z,5.63
2018-07-20T06:35:06.766Z,5.80
2018-07-20T06:37:36.443Z,6.37
2018-07-20T06:40:07.002Z,5.90
2018-07-20T06:42:36.690Z,5.10
2018-07-20T06:45:06.508Z,5.60
2018-07-20T06:47:36.226Z,5.87
2018-07-20T06:50:11.207Z,5.13
2018-07-20T06:52:40.912Z,5.93
2018-07-20T06:55:10.673Z,5.50
2018-07-20T06:57:40.395Z,5.63
2018-07-20T07:00:10.662Z,5.47
2018-07-20T07:02:40.333Z,5.20
2018-07-20T07:05:10.887Z,5.43
2018-07-20T07:07:40.580Z,5.30
2018-07-20T07:10:10.552Z,5.70
2018-07-20T07:12:40.213Z,5.00
2018-07-20T07:15:09.682Z,5.33
2018-07-20T07:17:39.146Z,5.03
2018-07-20T07:20:08.852Z,4.80
2018-07-20T07:22:38.559Z,5.60
2018-07-20T07:25:08.266Z,5.07
2018-07-20T07:27:37.942Z,4.90
2018-07-20T07:30:07.359Z,4.90
2018-07-20T07:32:36.805Z,5.10
2018-07-20T07:35:06.543Z,4.33
2018-07-20T07:37:36.225Z,4.60
2018-07-20T07:40:05.955Z,4.73
2018-07-20T07:42:35.671Z,4.43
2018-07-20T07:45:05.430Z,4.63
2018-07-20T07:47:35.135Z,4.77
2018-07-20T07:50:05.315Z,4.80
2018-07-20T07:52:35.028Z,4.60
2018-07-20T07:55:04.958Z,4.20
2018-07-20T07:57:34.651Z,4.73
2018-07-20T08:00:05.942Z,4.20
2018-07-20T08:02:35.654Z,4.80
2018-07-20T08:05:06.390Z,5.20
2018-07-20T08:07:36.152Z,5.23
2018-07-20T08:10:06.553Z,5.57
2018-07-20T08:12:37.712Z,5.20
2018-07-20T08:15:07.534Z,5.20
2018-07-20T08:17:36.982Z,5.43
2018-07-20T08:20:06.521Z,5.00
2018-07-20T08:22:36.215Z,5.30
2018-07-20T08:25:05.964Z,5.73
2018-07-20T08:27:36.535Z,5.80
2018-07-20T08:30:06.251Z,5.73
2018-07-20T08:32:36.641Z,4.47
2018-07-20T08:35:06.384Z,4.57
2018-07-20T08:37:36.130Z,3.60
2018-07-20T08:40:05.904Z,4.60
2018-07-20T08:42:36.479Z,3.83
2018-07-20T08:45:06.357Z,4.17
2018-07-20T08:47:36.079Z,4.30
2018-07-20T08:50:06.115Z,4.13
2018-07-20T08:52:35.851Z,4.47
2018-07-20T08:55:06.374Z,3.77
2018-07-20T08:57:36.097Z,4.20
2018-07-20T09:00:06.396Z,4.20
2018-07-20T09:02:36.099Z,3.67
2018-07-20T09:05:06.162Z,4.13
2018-07-20T09:07:36.019Z,4.00
2018-07-20T09:10:05.755Z,4.10
2018-07-20T09:12:35.522Z,3.57
2018-07-20T09:15:05.436Z,3.63
2018-07-20T09:17:35.210Z,3.90
2018-07-20T09:20:05.062Z,3.70
2018-07-20T09:22:34.779Z,3.93
2018-07-20T09:25:04.770Z,4.27
2018-07-20T09:27:35.115Z,3.67
2018-07-20T09:30:05.173Z,3.67
2018-07-20T09:32:34.895Z,3.80
2018-07-20T09:35:04.688Z,3.93
2018-07-20T09:37:34.419Z,4.20
2018-07-20T09:40:05.022Z,4.60
2018-07-20T09:42:34.780Z,4.33
2018-07-20T09:45:04.907Z,4.40
2018-07-20T09:47:34.631Z,3.80
2018-07-20T09:50:05.002Z,3.43
2018-07-20T09:52:34.736Z,4.07
2018-07-20T09:55:04.497Z,4.23
2018-07-20T09:57:34.323Z,4.43
2018-07-20T10:00:04.621Z,4.30
2018-07-20T10:02:34.574Z,4.40
2018-07-20T10:05:04.143Z,4.27
2018-07-20T10:07:35.715Z,4.30
2018-07-20T10:10:05.441Z,4.47
2018-07-20T10:12:37.495Z,3.83
2018-07-20T10:15:08.811Z,3.77
2018-07-20T10:17:38.556Z,3.80
2018-07-20T10:20:08.368Z,4.90
2018-07-20T10:22:38.195Z,4.00
2018-07-20T10:25:07.979Z,4.00
2018-07-20T10:27:37.752Z,4.07
2018-07-20T10:30:07.722Z,4.10
2018-07-20T10:32:37.426Z,3.90
2018-07-20T10:35:07.190Z,4.00
2018-07-20T10:37:37.574Z,4.00
2018-07-20T10:40:08.122Z,4.47
2018-07-20T10:42:37.835Z,4.30
2018-07-20T10:45:07.958Z,4.47
2018-07-20T10:47:37.707Z,4.33
2018-07-20T10:50:07.679Z,4.23
2018-07-20T10:52:39.020Z,4.13
2018-07-20T10:55:09.611Z,4.57
2018-07-20T10:57:39.304Z,4.77
2018-07-20T11:00:08.765Z,3.73
2018-07-20T11:02:38.266Z,4.27
2018-07-20T11:05:08.088Z,3.93
2018-07-20T11:07:37.828Z,3.90
2018-07-20T11:10:07.676Z,4.27
2018-07-20T11:12:37.470Z,4.30
2018-07-20T11:15:07.275Z,4.43
2018-07-20T11:17:37.003Z,5.30
2018-07-20T11:20:08.443Z,3.80
2018-07-20T11:22:38.232Z,4.47
2018-07-20T11:25:07.626Z,4.00
2018-07-20T11:27:37.174Z,4.27
2018-07-20T11:30:06.903Z,4.63
2018-07-20T11:32:36.659Z,3.97
2018-07-20T11:35:06.433Z,3.93
2018-07-20T11:37:36.151Z,4.17
2018-07-20T11:40:05.878Z,4.20
2018-07-20T11:42:35.590Z,4.40
2018-07-20T11:45:05.772Z,4.30
2018-07-20T11:47:35.505Z,4.30
2018-07-20T11:50:05.416Z,4.60
2018-07-20T11:52:36.819Z,4.60
2018-07-20T11:55:06.618Z,4.00
2018-07-20T11:57:36.320Z,3.97
2018-07-20T12:00:06.115Z,4.67
2018-07-20T12:02:35.851Z,4.40
2018-07-20T12:05:06.217Z,4.37
2018-07-20T12:07:36.322Z,5.13
2018-07-20T12:10:06.175Z,4.70
2018-07-20T12:12:35.907Z,5.03
2018-07-20T12:15:06.007Z,4.27
2018-07-20T12:17:35.770Z,4.60
2018-07-20T12:20:05.511Z,4.43
2018-07-20T12:22:35.241Z,4.40
2018-07-20T12:25:05.243Z,4.07
2018-07-20T12:27:35.243Z,4.33
2018-07-20T12:30:05.708Z,4.00
2018-07-20T12:32:35.403Z,4.80
2018-07-20T12:35:05.807Z,4.50
2018-07-20T12:37:35.855Z,4.03
2018-07-20T12:40:05.611Z,5.00
2018-07-20T12:42:35.365Z,4.20
2018-07-20T12:45:05.102Z,4.50
2018-07-20T12:47:34.844Z,4.17
2018-07-20T12:50:05.256Z,5.73
2018-07-20T12:52:34.622Z,4.60
2018-07-20T12:55:04.435Z,4.57
2018-07-20T12:57:36.171Z,4.17
2018-07-20T13:00:05.976Z,4.33
2018-07-20T13:02:35.674Z,4.50
2018-07-20T13:05:05.833Z,4.93
2018-07-20T13:07:35.567Z,4.30
2018-07-20T13:10:05.841Z,4.23
2018-07-20T13:12:35.578Z,4.60
2018-07-20T13:15:05.878Z,4.40
2018-07-20T13:17:36.470Z,4.73
2018-07-20T13:20:06.246Z,4.43
2018-07-20T13:22:36.006Z,4.10
2018-07-20T13:25:05.773Z,4.93
2018-07-20T13:27:35.531Z,4.40
2018-07-20T13:30:06.678Z,6.00
2018-07-20T13:32:36.541Z,4.40
2018-07-20T13:35:06.332Z,4.30
2018-07-20T13:37:36.107Z,5.03
2018-07-20T13:40:06.659Z,4.50
2018-07-20T13:42:36.426Z,5.20
2018-07-20T13:45:07.286Z,4.63
2018-07-20T13:47:37.002Z,4.60
2018-07-20T13:50:06.638Z,4.60
2018-07-20T13:52:36.114Z,5.27
2018-07-20T13:55:06.098Z,4.90
2018-07-20T13:57:35.824Z,5.10
2018-07-20T14:00:06.540Z,4.40
2018-07-20T14:02:37.394Z,4.87
2018-07-20T14:05:07.213Z,4.80
2018-07-20T14:07:36.956Z,4.90
2018-07-20T14:10:06.791Z,5.00
2018-07-20T14:12:36.776Z,4.73
2018-07-20T14:15:06.774Z,4.90
2018-07-20T14:17:36.516Z,4.43
2018-07-20T14:20:06.258Z,4.60
2018-07-20T14:22:36.067Z,4.30
2018-07-20T14:25:05.775Z,4.60
2018-07-20T14:27:35.527Z,4.93
2018-07-20T14:30:05.485Z,4.53
2018-07-20T14:32:35.260Z,4.10
2018-07-20T14:35:05.287Z,4.90
2018-07-20T14:37:35.025Z,4.40
2018-07-20T14:40:06.991Z,4.40
2018-07-20T14:42:36.726Z,4.57
2018-07-20T14:45:07.641Z,4.80
2018-07-20T14:47:38.426Z,4.70
2018-07-20T14:50:08.085Z,4.97
2018-07-20T14:52:37.959Z,4.40
2018-07-20T14:55:07.651Z,4.67
2018-07-20T14:57:37.376Z,4.70
2018-07-20T15:00:07.259Z,4.13
2018-07-20T15:02:36.944Z,4.63
2018-07-20T15:05:06.803Z,4.63
2018-07-20T15:07:36.646Z,4.60
2018-07-20T15:10:06.434Z,4.50
2018-07-20T15:12:36.126Z,4.53
2018-07-20T15:15:07.359Z,3.87
2018-07-20T15:17:37.347Z,4.30
2018-07-20T15:22:45.435Z,4.60
2018-07-20T15:25:15.120Z,4.97
2018-07-20T15:27:44.918Z,4.57
2018-07-20T15:30:14.666Z,4.67
2018-07-20T15:32:45.303Z,4.00
2018-07-20T15:35:15.023Z,3.90
2018-07-20T15:37:44.784Z,5.30
2018-07-20T15:40:14.558Z,5.00
2018-07-20T15:42:44.287Z,5.00
2018-07-20T15:45:14.662Z,4.63
2018-07-20T15:47:44.491Z,4.90
2018-07-20T15:50:14.254Z,4.90
2018-07-20T15:53:36.252Z,5.40
2018-07-20T15:55:13.683Z,4.70
2018-07-20T15:57:43.396Z,4.70
2018-07-20T16:00:13.359Z,4.30
2018-07-20T16:02:43.087Z,4.90
2018-07-20T16:05:15.357Z,4.87
2018-07-20T16:07:45.550Z,5.13
2018-07-20T16:10:15.371Z,5.30
2018-07-20T16:12:44.881Z,4.77
2018-07-20T16:15:14.479Z,5.80
2018-07-20T16:17:44.218Z,5.60
2018-07-20T16:20:14.804Z,4.97
2018-07-20T16:22:44.530Z,4.70
2018-07-20T16:25:14.239Z,4.87
2018-07-20T16:27:43.946Z,5.10
2018-07-20T16:30:13.684Z,5.00
2018-07-20T16:32:43.472Z,5.17
2018-07-20T16:35:13.196Z,5.50
2018-07-20T16:37:42.940Z,6.00
2018-07-20T16:40:12.723Z,5.00
2018-07-20T16:42:42.504Z,5.30
2018-07-20T16:45:12.199Z,5.60
2018-07-20T16:47:41.935Z,5.70
2018-07-20T16:50:11.687Z,5.43
2018-07-20T16:52:41.813Z,4.50
2018-07-20T16:55:11.545Z,4.33
2018-07-20T16:57:41.235Z,4.80
2018-07-20T17:00:10.948Z,4.60
2018-07-20T17:02:40.702Z,4.50
2018-07-20T17:05:10.407Z,5.97
2018-07-20T17:07:40.101Z,5.17
2018-07-20T17:10:09.826Z,6.40
2018-07-20T17:12:39.539Z,5.10
2018-07-20T17:15:08.983Z,5.03
2018-07-20T17:17:38.466Z,5.27
2018-07-20T17:20:08.217Z,4.70
2018-07-20T17:22:37.957Z,4.63
2018-07-20T17:25:07.740Z,5.20
2018-07-20T17:27:37.426Z,5.30
2018-07-20T17:30:07.206Z,4.77
2018-07-20T17:32:37.037Z,4.73
2018-07-20T17:35:06.800Z,4.80
2018-07-20T17:37:36.549Z,4.53
2018-07-20T17:40:06.500Z,5.30
2018-07-20T17:42:36.207Z,5.33
2018-07-20T17:45:05.985Z,5.43
2018-07-20T17:47:35.678Z,5.53
2018-07-20T17:50:05.423Z,4.73
2018-07-20T17:52:35.125Z,5.20
2018-07-20T17:55:04.910Z,6.10
2018-07-20T17:57:34.691Z,5.20
2018-07-20T18:00:04.762Z,5.23
2018-07-20T18:02:34.484Z,5.27
2018-07-20T18:05:04.280Z,4.87
2018-07-20T18:07:34.107Z,5.10
2018-07-20T18:10:04.822Z,5.00
2018-07-20T18:12:34.517Z,5.00
2018-07-20T18:15:04.606Z,5.97
2018-07-20T18:17:34.320Z,5.23
2018-07-20T18:20:04.166Z,5.23
2018-07-20T18:22:33.859Z,6.13
2018-07-20T18:25:03.665Z,5.27
2018-07-20T18:27:33.481Z,5.80
2018-07-20T18:30:03.202Z,6.03
2018-07-20T18:32:32.985Z,5.90
2018-07-20T18:35:02.719Z,6.50
2018-07-20T18:37:32.424Z,6.90
2018-07-20T18:40:02.223Z,8.50
2018-07-20T18:42:31.930Z,9.50
2018-07-20T18:45:01.672Z,7.73
2018-07-20T18:47:31.433Z,7.13
2018-07-20T18:50:01.198Z,6.10
2018-07-20T18:52:30.914Z,5.47
2018-07-20T18:55:00.660Z,6.37
2018-07-20T18:57:30.437Z,5.67
2018-07-20T19:00:00.183Z,5.93
2018-07-20T19:02:29.890Z,5.93
2018-07-20T19:04:59.613Z,6.10
2018-07-20T19:07:29.327Z,5.70
2018-07-20T19:09:59.332Z,6.00
2018-07-20T19:12:29.096Z,6.10
2018-07-20T19:14:58.836Z,5.67
2018-07-20T19:17:28.556Z,6.30
2018-07-20T19:19:58.326Z,6.17
2018-07-20T19:22:28.043Z,6.47
2018-07-20T19:24:57.783Z,6.77
2018-07-20T19:27:27.492Z,6.53
2018-07-20T19:29:57.191Z,6.33
2018-07-20T19:32:26.924Z,6.10
2018-07-20T19:34:56.624Z,5.83
2018-07-20T19:37:26.431Z,6.50
2018-07-20T19:39:56.200Z,5.47
2018-07-20T19:42:25.912Z,6.90
2018-07-20T19:44:55.642Z,6.20
2018-07-20T19:47:25.315Z,4.93
2018-07-20T19:49:55.032Z,6.00
2018-07-20T19:52:24.495Z,5.43
2018-07-20T19:54:53.984Z,5.67
2018-07-20T19:57:23.715Z,6.10
2018-07-20T19:59:53.392Z,5.93
2018-07-20T20:02:23.109Z,6.33
2018-07-20T20:04:52.810Z,5.67
2018-07-20T20:07:22.560Z,5.93
2018-07-20T20:09:52.298Z,6.00
2018-07-20T20:12:21.982Z,5.63
2018-07-20T20:14:52.480Z,5.67
2018-07-20T20:17:22.201Z,5.33
2018-07-20T20:19:51.910Z,5.80
2018-07-20T20:22:21.615Z,5.50
2018-07-20T20:24:51.376Z,5.87
2018-07-20T20:27:21.112Z,5.80
2018-07-20T20:29:50.812Z,6.10
2018-07-20T20:32:20.530Z,5.90
2018-07-20T20:34:50.251Z,6.00
2018-07-20T20:37:19.665Z,5.77
2018-07-20T20:39:49.262Z,6.93
2018-07-20T20:42:18.949Z,9.70
2018-07-20T20:44:48.630Z,7.30
2018-07-20T20:47:18.450Z,6.80
2018-07-20T20:49:48.223Z,7.20
2018-07-20T20:52:17.967Z,5.60
2018-07-20T20:54:47.659Z,6.27
2018-07-20T20:57:17.379Z,6.43
2018-07-20T20:59:47.093Z,7.03
2018-07-20T21:02:16.894Z,6.37
2018-07-20T21:04:46.656Z,5.10
2018-07-20T21:07:16.483Z,5.63
2018-07-20T21:09:46.283Z,4.67
2018-07-20T21:12:16.139Z,4.33
2018-07-20T21:14:45.814Z,4.90
2018-07-20T21:17:15.506Z,5.60
2018-07-20T21:19:45.227Z,6.07
2018-07-20T21:22:14.995Z,6.60
2018-07-20T21:24:44.692Z,6.30
2018-07-20T21:27:14.391Z,6.53
2018-07-20T21:29:44.432Z,7.47
2018-07-20T21:32:14.131Z,6.60
2018-07-20T21:34:43.851Z,7.27
2018-07-20T21:37:13.519Z,5.90
2018-07-20T21:39:43.311Z,5.80
2018-07-20T21:42:13.670Z,6.20
2018-07-20T21:44:43.806Z,5.87
2018-07-20T21:47:15.092Z,5.60
2018-07-20T21:49:45.900Z,5.30
2018-07-20T21:52:15.682Z,5.67
2018-07-20T21:54:45.498Z,5.60
2018-07-20T21:57:15.218Z,6.70
2018-07-20T21:59:45.737Z,6.80
2018-07-20T22:02:15.442Z,7.27
2018-07-20T22:04:45.162Z,8.10
2018-07-20T22:07:14.911Z,7.93
2018-07-20T22:09:44.607Z,7.40
2018-07-20T22:12:18.759Z,8.23
2018-07-20T22:14:48.492Z,9.30
2018-07-20T22:17:18.154Z,8.37
2018-07-20T22:19:47.851Z,8.47
2018-07-20T22:22:17.575Z,8.40
2018-07-20T22:24:47.255Z,8.50
2018-07-20T22:27:16.694Z,8.83
2018-07-20T22:29:46.223Z,9.17
2018-07-20T22:32:16.024Z,8.50
2018-07-20T22:34:45.777Z,8.77
2018-07-20T22:37:15.492Z,8.60
2018-07-20T22:39:45.809Z,8.53
2018-07-20T22:42:15.507Z,8.10
2018-07-20T22:44:45.205Z,8.73
2018-07-20T22:47:14.953Z,9.47
2018-07-20T22:49:45.038Z,7.87
2018-07-20T22:52:14.704Z,8.37
2018-07-20T22:54:44.390Z,8.27
2018-07-20T22:57:14.089Z,7.67
2018-07-20T22:59:43.795Z,6.83
2018-07-20T23:02:13.515Z,7.30
2018-07-20T23:04:43.325Z,6.93
2018-07-20T23:07:13.023Z,6.37
2018-07-20T23:09:42.721Z,6.90
2018-07-20T23:12:12.581Z,7.37
2018-07-20T23:14:42.344Z,6.90
2018-07-20T23:17:12.142Z,6.83
2018-07-20T23:19:41.900Z,6.00
2018-07-20T23:22:11.606Z,6.07
2018-07-20T23:24:41.327Z,7.10
2018-07-20T23:27:11.027Z,6.20
2018-07-20T23:29:40.734Z,6.73
2018-07-20T23:32:10.475Z,6.77
2018-07-20T23:34:40.184Z,6.60
2018-07-20T23:37:10.952Z,5.97
2018-07-20T23:39:40.630Z,5.70
2018-07-20T23:42:10.299Z,5.90
2018-07-20T23:44:39.972Z,6.17
2018-07-20T23:47:09.658Z,5.70
2018-07-20T23:49:39.328Z,5.60
2018-07-20T23:52:09.030Z,5.60
2018-07-20T23:54:39.324Z,5.60
2018-07-20T23:57:09.194Z,5.63
2018-07-20T23:59:38.866Z,5.70
